Tokachi-Obihiro Airport Obihiro JP
ICAO: RJCB
IATA:
Category: Medium
Scheduled Services:

Elevation: 505 ft
TransAlt. 18000 ft.

Airport Communications:
SAPPORO CON:128.325
TWR:118.7

RJCB Zoom In..

If you have problems with the map follow the link
https://www.worldairports.se/pages/airport.php?
ICAO=RJCB

Runways:

(A) RW 17 length 8202 ft width 148 ft
---- / hdg 168

(B) RW 35 length 8202 ft width 148 ft
ILS 111.70 / hdg 348

Location; RJCB
Day. 22 / Time. 11.00 Zulu
* QNH: 1011
* Temperature: -03° c. -26.6°f.
* Wind from: 160° Speed 04 kn.
Dewpoint: -09° c.
Visibility: 10 km or more.
Clouds: Few 2000 ft.

RJCB 221100Z 16004KT 9999 FEW020 M03/M09 Q1011


Wind From 160°
Speed 04 kn.

 
 
jpsmedia.com for Web Design worldairports.se 2019   terms of use